Time;durP1;ratioP1;P1;durP2;ratioP2;P2;SDS_P1;SDS_P2;PMS_P1;PMS_P2;Temp;Humidity;BMP_temperature;BMP_pressure;BME280_temperature;BME280_humidity;BME280_pressure;Samples;Min_cycle;Max_cycle;Signal;HPM_P1;HPM_P2
2023/05/23 00:00:06;;;;;;;30.97;27.83;;;17.90;99.90;;;;;;6154346;23;20464;-77
2023/05/23 00:02:34;;;;;;;29.63;26.43;;;17.90;99.90;;;;;;6174106;23;20439;-77
2023/05/23 00:05:02;;;;;;;30.63;27.40;;;17.90;99.90;;;;;;6177973;23;20423;-77
2023/05/23 00:07:31;;;;;;;32.23;29.10;;;17.80;99.90;;;;;;6173925;23;20467;-77
2023/05/23 00:09:58;;;;;;;33.13;29.70;;;17.80;99.90;;;;;;6175788;23;20518;-77
2023/05/23 00:12:26;;;;;;;33.40;29.83;;;17.70;99.90;;;;;;6178391;23;20529;-76
2023/05/23 00:14:53;;;;;;;36.37;32.67;;;17.70;99.90;;;;;;6174978;23;20443;-77
2023/05/23 00:17:24;;;;;;;40.43;35.40;;;17.70;99.90;;;;;;6169487;23;20990;-76
2023/05/23 00:19:51;;;;;;;37.97;33.03;;;17.70;99.90;;;;;;6152584;23;20428;-77
2023/05/23 00:22:18;;;;;;;38.43;33.93;;;17.70;99.90;;;;;;6173788;23;21075;-76
2023/05/23 00:24:45;;;;;;;40.37;34.97;;;17.80;99.90;;;;;;6178728;23;20448;-76
2023/05/23 00:27:12;;;;;;;40.30;36.10;;;17.60;99.90;;;;;;6177800;23;20514;-76
2023/05/23 00:29:39;;;;;;;42.20;37.00;;;17.60;99.90;;;;;;6163032;23;20528;-76
2023/05/23 00:32:06;;;;;;;43.77;38.90;;;17.60;99.90;;;;;;6163822;23;20486;-76
2023/05/23 00:34:35;;;;;;;46.33;40.00;;;17.60;99.90;;;;;;6177070;23;20970;-76
2023/05/23 00:37:02;;;;;;;41.53;36.53;;;17.60;99.90;;;;;;6150560;23;20436;-77
2023/05/23 00:39:29;;;;;;;46.10;40.10;;;17.60;99.90;;;;;;6165691;23;20436;-76
2023/05/23 00:41:56;;;;;;;45.20;38.90;;;17.80;99.90;;;;;;6171055;23;20431;-77
2023/05/23 00:44:23;;;;;;;44.77;37.13;;;17.60;99.90;;;;;;6173185;23;20460;-76
2023/05/23 00:46:54;;;;;;;42.23;36.77;;;17.60;99.90;;;;;;6176502;23;20522;-76
2023/05/23 00:49:22;;;;;;;44.67;39.73;;;17.50;99.90;;;;;;6171185;23;20464;-76
2023/05/23 00:51:51;;;;;;;51.10;41.13;;;17.50;99.90;;;;;;6176224;23;20431;-77
2023/05/23 00:54:23;;;;;;;46.93;39.93;;;17.50;99.90;;;;;;6178510;23;20547;-77
2023/05/23 00:56:50;;;;;;;49.03;41.33;;;17.50;99.90;;;;;;6172107;23;20441;-77
2023/05/23 00:59:20;;;;;;;50.03;42.80;;;17.50;99.90;;;;;;6182867;23;20465;-76
2023/05/23 01:01:48;;;;;;;50.53;42.67;;;17.50;99.90;;;;;;6175309;23;20439;-76
2023/05/23 01:04:16;;;;;;;53.10;44.73;;;17.40;99.90;;;;;;6176385;23;20477;-76
2023/05/23 01:06:45;;;;;;;54.13;44.30;;;17.40;99.90;;;;;;6171142;23;20436;-76
2023/05/23 01:09:15;;;;;;;52.60;43.87;;;17.40;99.90;;;;;;6174715;23;20512;-76
2023/05/23 01:11:48;;;;;;;50.33;42.93;;;17.40;99.90;;;;;;6176632;23;20989;-76
2023/05/23 01:14:21;;;;;;;49.10;42.23;;;17.40;99.90;;;;;;6170259;23;21097;-76
2023/05/23 01:16:53;;;;;;;51.67;43.30;;;17.40;99.90;;;;;;6171124;23;20483;-76
2023/05/23 01:19:54;;;;;;;50.27;43.80;;;17.40;99.90;;;;;;6176246;23;20493;-76
2023/05/23 01:22:26;;;;;;;49.97;42.17;;;17.30;99.90;;;;;;6162979;23;20492;-76
2023/05/23 01:25:07;;;;;;;56.80;44.10;;;17.30;99.90;;;;;;6174896;23;20468;-76
2023/05/23 01:27:47;;;;;;;48.17;42.60;;;17.30;99.90;;;;;;6176858;23;20515;-76
2023/05/23 01:30:18;;;;;;;53.30;46.87;;;17.40;99.90;;;;;;6166937;23;20931;-76
2023/05/23 01:32:47;;;;;;;52.80;45.77;;;17.60;99.90;;;;;;6173709;23;20462;-76
2023/05/23 01:35:21;;;;;;;49.10;43.70;;;17.30;99.90;;;;;;6177064;23;20847;-76
2023/05/23 01:37:48;;;;;;;50.40;43.57;;;17.40;99.90;;;;;;6175183;23;20439;-76
2023/05/23 01:40:15;;;;;;;56.40;47.17;;;17.40;99.90;;;;;;6169674;23;20840;-76
2023/05/23 01:42:44;;;;;;;57.73;48.40;;;17.40;99.90;;;;;;6174036;23;20992;-76
2023/05/23 01:45:12;;;;;;;58.50;48.77;;;17.40;99.90;;;;;;6174334;23;20478;-76
2023/05/23 01:47:40;;;;;;;57.40;47.17;;;17.40;99.90;;;;;;6175682;23;20448;-76
2023/05/23 01:50:08;;;;;;;58.93;49.90;;;17.40;99.90;;;;;;6172185;23;20927;-76
2023/05/23 01:52:36;;;;;;;57.80;49.87;;;17.40;99.90;;;;;;6175353;23;20511;-76
2023/05/23 01:55:08;;;;;;;58.00;48.87;;;17.40;99.90;;;;;;6163490;23;20542;-76
2023/05/23 01:57:36;;;;;;;60.77;51.27;;;17.40;99.90;;;;;;6153806;23;20443;-76
2023/05/23 02:00:06;;;;;;;61.57;51.73;;;17.40;99.90;;;;;;6175621;23;20504;-76
2023/05/23 02:02:33;;;;;;;58.60;52.10;;;17.40;99.90;;;;;;6174920;23;20506;-76
2023/05/23 02:05:00;;;;;;;62.57;51.60;;;17.40;99.90;;;;;;6175419;23;20444;-76
2023/05/23 02:07:28;;;;;;;63.47;51.17;;;17.40;99.90;;;;;;6172618;23;20443;-76
2023/05/23 02:09:55;;;;;;;62.03;52.37;;;17.40;99.90;;;;;;6177877;23;20550;-76
2023/05/23 02:12:22;;;;;;;61.70;51.33;;;17.40;99.90;;;;;;6161789;23;20495;-76
2023/05/23 02:14:50;;;;;;;60.17;51.70;;;17.40;99.90;;;;;;6161207;23;20450;-76
2023/05/23 02:17:20;;;;;;;55.83;49.47;;;17.40;99.90;;;;;;6175647;23;20493;-76
2023/05/23 02:19:48;;;;;;;59.07;50.77;;;17.40;99.90;;;;;;6176115;23;20931;-76
2023/05/23 02:22:15;;;;;;;61.90;52.90;;;17.40;99.90;;;;;;6171595;23;20439;-76
2023/05/23 02:24:42;;;;;;;64.03;52.30;;;17.60;99.90;;;;;;6175831;23;20435;-76
2023/05/23 02:27:09;;;;;;;59.87;50.57;;;17.50;99.90;;;;;;6176438;23;20515;-76
2023/05/23 02:29:36;;;;;;;60.50;51.80;;;17.50;99.90;;;;;;6155947;23;20548;-76
2023/05/23 02:32:03;;;;;;;59.57;52.20;;;17.50;99.90;;;;;;6172079;23;20470;-76
2023/05/23 02:34:31;;;;;;;62.87;54.50;;;17.50;99.90;;;;;;6174533;23;20534;-76
2023/05/23 02:36:58;;;;;;;59.80;51.40;;;17.50;99.90;;;;;;6174876;23;20435;-76
2023/05/23 02:39:26;;;;;;;60.10;53.57;;;17.50;99.90;;;;;;6173226;23;20792;-75
2023/05/23 02:41:53;;;;;;;57.67;51.33;;;17.50;99.90;;;;;;6176327;23;20934;-77
2023/05/23 02:44:20;;;;;;;59.43;53.00;;;17.50;99.90;;;;;;6165275;23;21005;-76
2023/05/23 02:46:47;;;;;;;57.43;50.57;;;17.50;99.90;;;;;;6182736;23;20824;-76
2023/05/23 02:49:14;;;;;;;60.97;52.00;;;17.50;99.90;;;;;;6170785;23;20495;-76
2023/05/23 02:51:43;;;;;;;61.13;53.27;;;17.60;99.90;;;;;;6176867;23;20814;-76
2023/05/23 02:54:10;;;;;;;57.40;51.30;;;17.60;99.90;;;;;;6174791;23;20464;-76
2023/05/23 02:56:37;;;;;;;60.87;54.27;;;17.50;99.90;;;;;;6174714;23;20516;-77
2023/05/23 02:59:04;;;;;;;58.67;51.10;;;17.60;99.90;;;;;;6164204;23;21080;-77
2023/05/23 03:01:31;;;;;;;58.77;52.40;;;17.50;99.90;;;;;;6173504;23;20578;-76
2023/05/23 03:03:58;;;;;;;61.13;52.10;;;17.60;99.90;;;;;;6154483;23;20455;-77
2023/05/23 03:06:26;;;;;;;59.27;52.77;;;17.60;99.90;;;;;;6176608;23;20432;-76
2023/05/23 03:08:55;;;;;;;60.57;53.87;;;17.60;99.90;;;;;;6171487;23;20467;-77
2023/05/23 03:11:22;;;;;;;60.30;53.80;;;17.60;99.90;;;;;;6172072;23;20874;-77
2023/05/23 03:13:50;;;;;;;59.37;52.87;;;17.60;99.90;;;;;;6175275;23;20520;-77
2023/05/23 03:16:17;;;;;;;58.27;51.43;;;17.60;99.90;;;;;;6168354;23;20471;-76
2023/05/23 03:18:44;;;;;;;59.13;51.97;;;17.60;99.90;;;;;;6153317;23;20437;-76
2023/05/23 03:21:11;;;;;;;56.13;50.13;;;17.60;99.90;;;;;;6163318;23;20520;-77
2023/05/23 03:23:38;;;;;;;55.43;49.70;;;17.60;99.90;;;;;;6175860;23;20455;-77
2023/05/23 03:26:06;;;;;;;62.53;55.83;;;17.60;99.90;;;;;;6160179;23;20532;-77
2023/05/23 03:28:33;;;;;;;58.00;51.90;;;17.60;99.90;;;;;;6159303;23;20463;-75
2023/05/23 03:31:00;;;;;;;58.50;52.20;;;17.60;99.90;;;;;;6166511;23;20440;-77
2023/05/23 03:33:27;;;;;;;57.87;51.70;;;17.80;99.90;;;;;;6163154;23;21170;-76
2023/05/23 03:35:56;;;;;;;53.70;48.00;;;17.60;99.90;;;;;;6167675;23;20443;-77
2023/05/23 03:38:23;;;;;;;57.60;51.50;;;17.60;99.90;;;;;;6175660;23;20450;-76
2023/05/23 03:40:50;;;;;;;53.13;47.50;;;17.70;99.90;;;;;;6177782;23;21006;-77
2023/05/23 03:43:19;;;;;;;54.20;48.50;;;17.70;99.90;;;;;;6176076;23;20487;-77
2023/05/23 03:45:46;;;;;;;55.33;49.40;;;17.60;99.90;;;;;;6174234;23;20476;-77
2023/05/23 03:48:13;;;;;;;55.30;49.60;;;17.60;99.90;;;;;;6175223;23;20935;-77
2023/05/23 03:50:40;;;;;;;55.43;49.37;;;17.70;99.90;;;;;;6158710;23;20465;-77
2023/05/23 03:53:07;;;;;;;53.77;48.27;;;17.70;99.90;;;;;;6174436;23;20563;-77
2023/05/23 03:55:34;;;;;;;52.30;47.00;;;17.70;99.90;;;;;;6176888;23;20506;-77
2023/05/23 03:58:01;;;;;;;55.43;49.70;;;17.70;99.90;;;;;;6176584;23;20510;-77
2023/05/23 04:00:29;;;;;;;54.10;48.73;;;17.60;99.90;;;;;;6172469;23;20447;-76
2023/05/23 04:02:56;;;;;;;52.47;47.00;;;17.60;99.90;;;;;;6174822;23;20517;-77
2023/05/23 04:05:24;;;;;;;56.73;49.20;;;17.60;99.90;;;;;;6169363;23;20497;-72
2023/05/23 04:07:51;;;;;;;53.20;47.73;;;17.60;99.90;;;;;;6173765;23;20527;-77
2023/05/23 04:10:18;;;;;;;52.30;46.90;;;17.50;99.90;;;;;;6161642;23;20520;-78
2023/05/23 04:12:46;;;;;;;53.57;48.03;;;17.50;99.90;;;;;;6157027;23;20963;-77
2023/05/23 04:15:13;;;;;;;53.97;48.20;;;17.50;99.90;;;;;;6149738;23;20413;-78
2023/05/23 04:17:42;;;;;;;54.83;49.20;;;17.50;99.90;;;;;;6179657;23;20477;-78
2023/05/23 04:20:10;;;;;;;54.97;49.37;;;17.70;99.90;;;;;;6184231;23;20471;-79
2023/05/23 04:22:38;;;;;;;55.17;49.30;;;17.50;99.90;;;;;;6173654;23;20994;-79
2023/05/23 04:25:06;;;;;;;50.30;45.07;;;17.50;99.90;;;;;;6168728;23;20860;-78
2023/05/23 04:27:33;;;;;;;50.87;45.67;;;17.60;99.90;;;;;;6178349;23;20427;-75
2023/05/23 04:30:00;;;;;;;55.17;49.83;;;17.60;99.90;;;;;;6148757;23;20567;-80
2023/05/23 04:32:27;;;;;;;50.47;45.47;;;17.60;99.90;;;;;;6159050;23;20510;-83
2023/05/23 04:34:56;;;;;;;50.87;45.67;;;17.70;99.90;;;;;;6165804;23;20445;-79
2023/05/23 04:37:24;;;;;;;47.53;42.60;;;17.70;99.90;;;;;;6160761;23;20507;-78
2023/05/23 04:39:52;;;;;;;49.47;44.50;;;17.80;99.90;;;;;;6153072;23;20952;-78
2023/05/23 04:42:23;;;;;;;50.17;44.97;;;17.80;99.90;;;;;;6152984;23;20471;-78
2023/05/23 04:44:50;;;;;;;48.37;43.87;;;17.90;99.90;;;;;;6159183;23;20499;-78
2023/05/23 04:47:17;;;;;;;48.30;43.77;;;18.00;99.90;;;;;;6146365;23;20556;-79
2023/05/23 04:49:45;;;;;;;50.13;45.10;;;18.00;99.90;;;;;;6162396;23;20480;-79
2023/05/23 04:52:13;;;;;;;46.03;41.50;;;18.10;99.90;;;;;;6159419;23;21142;-78
2023/05/23 04:54:43;;;;;;;47.83;43.17;;;18.10;99.90;;;;;;6153311;23;20464;-80
2023/05/23 04:57:11;;;;;;;44.87;40.57;;;18.20;99.90;;;;;;6143387;23;20440;-77
2023/05/23 04:59:38;;;;;;;45.47;41.30;;;18.20;99.90;;;;;;6133976;23;20428;-84
2023/05/23 05:02:06;;;;;;;43.30;39.07;;;18.20;99.90;;;;;;6166122;23;20502;-77
2023/05/23 05:04:33;;;;;;;47.70;42.87;;;18.20;99.90;;;;;;6159494;23;20911;-77
2023/05/23 05:07:02;;;;;;;46.73;42.10;;;18.20;99.90;;;;;;6170304;23;20436;-77
2023/05/23 05:09:31;;;;;;;43.63;39.40;;;18.30;99.90;;;;;;6166095;23;20601;-77
2023/05/23 05:11:58;;;;;;;47.00;42.40;;;18.30;99.90;;;;;;6165968;23;20471;-77
2023/05/23 05:14:25;;;;;;;42.70;38.60;;;18.40;99.90;;;;;;6161764;23;21014;-77
2023/05/23 05:16:53;;;;;;;47.63;42.93;;;18.40;99.90;;;;;;6148155;23;20435;-77
2023/05/23 05:19:20;;;;;;;47.47;43.00;;;18.60;99.90;;;;;;6182994;23;20487;-76
2023/05/23 05:21:47;;;;;;;43.80;39.80;;;18.40;99.90;;;;;;6173684;23;20428;-76
2023/05/23 05:24:15;;;;;;;40.83;37.17;;;18.40;99.90;;;;;;6168657;23;20475;-77
2023/05/23 05:26:43;;;;;;;47.47;43.07;;;18.40;99.90;;;;;;6172615;23;20461;-76
2023/05/23 05:29:10;;;;;;;44.60;40.47;;;18.40;99.90;;;;;;6166860;23;20495;-77
2023/05/23 05:31:37;;;;;;;44.00;39.90;;;18.40;99.90;;;;;;6172732;23;20493;-75
2023/05/23 05:34:04;;;;;;;43.80;39.67;;;18.40;99.90;;;;;;6176262;23;20493;-76
2023/05/23 05:36:31;;;;;;;41.83;38.10;;;18.40;99.90;;;;;;6174264;23;20460;-75
2023/05/23 05:38:58;;;;;;;44.97;40.97;;;18.40;99.90;;;;;;6173142;23;20427;-75
2023/05/23 05:41:26;;;;;;;41.10;37.20;;;18.50;99.90;;;;;;6159738;23;20503;-76
2023/05/23 05:43:55;;;;;;;40.07;36.43;;;18.50;99.90;;;;;;6163082;23;20455;-75
2023/05/23 05:46:22;;;;;;;46.13;41.43;;;18.60;99.90;;;;;;6152380;23;20942;-76
2023/05/23 05:48:49;;;;;;;43.17;38.90;;;18.60;99.90;;;;;;6165111;23;20435;-76
2023/05/23 05:51:16;;;;;;;43.40;39.43;;;18.60;99.90;;;;;;6150940;23;20473;-76
2023/05/23 05:53:44;;;;;;;44.53;40.23;;;18.60;99.90;;;;;;6145858;23;20452;-76
2023/05/23 05:56:11;;;;;;;42.77;39.00;;;18.70;99.90;;;;;;6173260;23;20535;-76
2023/05/23 05:58:38;;;;;;;43.13;39.03;;;18.70;99.90;;;;;;6153858;23;20431;-76
2023/05/23 06:01:06;;;;;;;41.83;38.13;;;18.70;99.90;;;;;;6160845;23;20439;-75
2023/05/23 06:03:34;;;;;;;43.87;39.83;;;18.70;99.90;;;;;;6137888;23;20464;-76
2023/05/23 06:06:01;;;;;;;43.90;39.97;;;18.80;99.90;;;;;;6158280;23;20436;-76
2023/05/23 06:08:28;;;;;;;41.93;38.30;;;18.80;99.90;;;;;;6169649;23;20444;-76
2023/05/23 06:10:55;;;;;;;38.60;35.10;;;18.90;99.90;;;;;;6168794;23;23039;-76
2023/05/23 06:13:25;;;;;;;40.03;36.33;;;18.90;99.90;;;;;;6155823;23;21001;-76
2023/05/23 06:15:52;;;;;;;38.37;35.07;;;19.00;99.90;;;;;;6168385;23;20436;-76
2023/05/23 06:18:20;;;;;;;39.37;35.77;;;19.20;99.90;;;;;;6168452;23;20521;-76
2023/05/23 06:20:47;;;;;;;37.40;34.03;;;19.40;99.90;;;;;;6160781;23;20432;-76
2023/05/23 06:23:14;;;;;;;41.37;37.67;;;19.50;99.90;;;;;;6177460;23;20477;-76
2023/05/23 06:25:41;;;;;;;40.70;37.27;;;19.50;99.90;;;;;;6171193;23;20514;-76
2023/05/23 06:28:08;;;;;;;40.23;36.73;;;19.60;99.90;;;;;;6175277;23;20846;-76
2023/05/23 06:30:37;;;;;;;38.67;35.27;;;19.60;99.90;;;;;;6173391;23;20500;-76
2023/05/23 06:33:04;;;;;;;39.70;36.17;;;19.70;99.90;;;;;;6167820;23;20541;-76
2023/05/23 06:35:32;;;;;;;40.13;36.53;;;19.70;99.90;;;;;;6167983;23;20444;-76
2023/05/23 06:37:59;;;;;;;38.80;35.43;;;19.70;99.90;;;;;;6175578;23;20432;-76
2023/05/23 06:40:26;;;;;;;40.33;36.83;;;19.70;99.90;;;;;;6167048;23;20497;-76
2023/05/23 06:42:53;;;;;;;40.43;37.00;;;19.60;99.90;;;;;;6166932;23;20447;-76
2023/05/23 06:45:20;;;;;;;40.97;37.47;;;19.50;99.90;;;;;;6164179;23;20424;-76
2023/05/23 06:47:48;;;;;;;39.03;35.60;;;19.50;99.90;;;;;;6166700;23;20780;-76
2023/05/23 06:50:18;;;;;;;41.97;38.33;;;19.50;99.90;;;;;;6160263;23;20994;-77
2023/05/23 06:52:47;;;;;;;43.00;39.30;;;19.40;99.90;;;;;;6143920;23;20448;-78
2023/05/23 06:55:17;;;;;;;41.60;37.87;;;19.40;99.90;;;;;;6162411;23;20437;-77
2023/05/23 06:57:45;;;;;;;44.43;40.27;;;19.30;99.90;;;;;;6160503;23;20815;-76
2023/05/23 07:00:13;;;;;;;39.57;36.27;;;19.20;99.90;;;;;;6151685;23;20467;-77
2023/05/23 07:02:41;;;;;;;42.17;38.40;;;19.00;99.90;;;;;;6155453;23;20523;-77
2023/05/23 07:05:08;;;;;;;41.83;38.30;;;18.90;99.90;;;;;;6159131;23;20481;-77
2023/05/23 07:07:35;;;;;;;40.77;37.20;;;18.90;99.90;;;;;;6152838;23;20424;-79
2023/05/23 07:10:04;;;;;;;39.60;36.20;;;18.80;99.90;;;;;;6160601;23;20465;-77
2023/05/23 07:12:32;;;;;;;35.93;32.63;;;18.60;99.90;;;;;;6160496;23;20455;-77
2023/05/23 07:14:59;;;;;;;33.57;30.77;;;18.50;99.90;;;;;;6155379;23;20535;-77
2023/05/23 07:17:28;;;;;;;34.00;30.93;;;18.40;99.90;;;;;;6151411;23;20482;-76
2023/05/23 07:19:55;;;;;;;32.93;29.90;;;18.40;99.90;;;;;;6148220;23;20519;-76
2023/05/23 07:22:22;;;;;;;28.80;26.40;;;18.40;99.90;;;;;;6185563;23;20526;-76
2023/05/23 07:24:49;;;;;;;30.50;28.00;;;18.40;99.90;;;;;;6180604;23;21228;-76
2023/05/23 07:27:18;;;;;;;28.43;26.10;;;18.40;99.90;;;;;;6168248;23;20518;-77
2023/05/23 07:29:45;;;;;;;29.83;27.33;;;18.40;99.90;;;;;;6156205;23;21261;-76
2023/05/23 07:32:12;;;;;;;28.23;25.90;;;18.40;99.90;;;;;;6173973;23;20459;-76
2023/05/23 07:34:39;;;;;;;25.40;23.30;;;18.40;99.90;;;;;;6150330;23;20533;-77
2023/05/23 07:37:06;;;;;;;27.10;24.63;;;18.50;99.90;;;;;;6160524;23;20431;-76
2023/05/23 07:39:33;;;;;;;30.47;28.00;;;18.60;99.90;;;;;;6164901;23;20432;-77
2023/05/23 07:42:00;;;;;;;26.03;23.93;;;18.70;99.90;;;;;;6177179;23;20418;-77
2023/05/23 07:44:29;;;;;;;26.97;24.60;;;18.90;99.90;;;;;;6157188;23;20434;-76
2023/05/23 07:46:56;;;;;;;27.00;24.80;;;19.00;99.90;;;;;;6151255;23;21139;-77
2023/05/23 07:49:23;;;;;;;27.63;25.13;;;19.20;99.90;;;;;;6177101;23;20464;-77
2023/05/23 07:51:50;;;;;;;26.63;24.40;;;19.50;99.90;;;;;;6162894;23;20557;-77
2023/05/23 07:54:17;;;;;;;23.33;21.27;;;19.80;99.90;;;;;;6168315;23;20510;-77
2023/05/23 07:56:45;;;;;;;24.43;22.33;;;20.20;99.90;;;;;;6172199;23;20499;-77
2023/05/23 07:59:12;;;;;;;22.60;20.70;;;20.70;99.90;;;;;;6174811;23;20427;-77
2023/05/23 08:01:40;;;;;;;23.33;21.53;;;20.90;99.90;;;;;;6174956;23;20450;-77
2023/05/23 08:04:07;;;;;;;23.60;21.60;;;21.10;99.90;;;;;;6169909;23;20464;-77
2023/05/23 08:06:36;;;;;;;22.80;20.83;;;21.30;99.90;;;;;;6148471;23;20447;-77
2023/05/23 08:09:04;;;;;;;24.53;22.63;;;21.50;99.90;;;;;;6175959;23;20431;-77
2023/05/23 08:11:31;;;;;;;23.87;22.07;;;21.40;99.90;;;;;;6164255;23;20529;-77
2023/05/23 08:13:58;;;;;;;24.57;22.77;;;21.10;99.90;;;;;;6177767;23;20954;-77
2023/05/23 08:16:26;;;;;;;22.57;20.77;;;20.80;99.90;;;;;;6178413;23;20430;-77
2023/05/23 08:18:55;;;;;;;23.73;21.83;;;20.60;99.90;;;;;;6176642;23;20420;-77
2023/05/23 08:21:22;;;;;;;24.20;22.27;;;20.40;99.90;;;;;;6174300;23;20764;-77
2023/05/23 08:23:50;;;;;;;21.63;19.93;;;20.30;99.90;;;;;;6165157;23;20471;-77
2023/05/23 08:26:16;;;;;;;22.37;20.70;;;20.20;99.90;;;;;;6150381;23;20482;-77
2023/05/23 08:28:43;;;;;;;22.23;20.33;;;20.10;99.90;;;;;;6156718;23;20436;-77
2023/05/23 08:31:11;;;;;;;21.70;20.00;;;20.00;99.90;;;;;;6168457;23;20463;-77
2023/05/23 08:33:38;;;;;;;22.40;20.50;;;20.00;99.90;;;;;;6178144;23;20516;-76
2023/05/23 08:36:06;;;;;;;22.10;20.30;;;20.00;99.90;;;;;;6160738;23;20480;-76
2023/05/23 08:38:34;;;;;;;20.13;18.53;;;20.10;99.90;;;;;;6159025;23;20443;-77
2023/05/23 08:41:01;;;;;;;18.50;17.07;;;20.40;99.90;;;;;;6150359;23;20439;-77
2023/05/23 08:43:29;;;;;;;20.10;18.50;;;20.70;99.90;;;;;;6170144;23;20443;-77
2023/05/23 08:45:56;;;;;;;18.80;17.30;;;21.00;99.90;;;;;;6177547;23;20440;-77
2023/05/23 08:48:26;;;;;;;19.00;17.40;;;21.20;99.90;;;;;;6176492;23;20473;-77
2023/05/23 08:50:53;;;;;;;19.23;17.63;;;21.30;99.90;;;;;;6172431;23;20463;-77
2023/05/23 08:53:25;;;;;;;19.40;17.80;;;21.30;99.90;;;;;;6178703;23;20452;-77
2023/05/23 08:55:54;;;;;;;18.87;17.27;;;21.20;99.90;;;;;;6165481;23;20503;-76
2023/05/23 08:58:23;;;;;;;19.43;17.83;;;21.10;99.90;;;;;;6165398;23;20573;-76
2023/05/23 09:00:52;;;;;;;18.17;16.77;;;21.00;99.90;;;;;;6169567;23;20434;-76
2023/05/23 09:03:19;;;;;;;16.40;15.07;;;21.00;99.90;;;;;;6147014;23;20644;-77
2023/05/23 09:05:48;;;;;;;17.80;16.40;;;20.90;99.90;;;;;;6143279;23;20437;-77
2023/05/23 09:08:15;;;;;;;16.70;15.37;;;21.00;99.90;;;;;;6172690;23;20435;-77
2023/05/23 09:10:43;;;;;;;16.70;15.50;;;21.40;99.90;;;;;;6156512;23;20456;-77
2023/05/23 09:13:11;;;;;;;16.57;15.10;;;21.90;99.90;;;;;;6168195;23;20451;-77
2023/05/23 09:15:38;;;;;;;16.63;15.23;;;22.30;99.90;;;;;;6176874;23;20428;-77
2023/05/23 09:18:05;;;;;;;17.07;15.77;;;22.50;99.90;;;;;;6178315;23;20452;-77
2023/05/23 09:20:33;;;;;;;16.63;15.37;;;22.30;99.90;;;;;;6153720;23;20534;-77
2023/05/23 09:23:00;;;;;;;15.77;14.57;;;22.20;99.90;;;;;;6152970;23;21059;-76
2023/05/23 09:25:27;;;;;;;17.57;15.93;;;22.00;99.90;;;;;;6162471;23;20432;-76
2023/05/23 09:27:58;;;;;;;16.70;15.30;;;21.90;99.90;;;;;;6152166;23;20436;-77
2023/05/23 09:30:26;;;;;;;17.80;16.30;;;21.90;99.90;;;;;;6151668;23;20864;-77
2023/05/23 09:33:01;;;;;;;19.20;17.40;;;21.60;99.90;;;;;;6154326;23;20532;-77
2023/05/23 09:35:28;;;;;;;18.10;16.60;;;21.40;99.90;;;;;;6158899;23;20526;-77
2023/05/23 09:37:59;;;;;;;18.37;16.77;;;21.20;99.90;;;;;;6157527;23;20427;-77
2023/05/23 09:40:31;;;;;;;17.73;16.30;;;20.90;99.90;;;;;;6151699;23;20445;-77
2023/05/23 09:43:06;;;;;;;17.90;16.50;;;20.70;99.90;;;;;;6143721;23;20459;-75
2023/05/23 09:45:34;;;;;;;16.37;15.03;;;20.40;99.90;;;;;;6157923;23;20492;-77
2023/05/23 09:48:02;;;;;;;17.40;16.00;;;20.20;99.90;;;;;;6147315;23;20515;-77
2023/05/23 09:50:32;;;;;;;15.10;14.00;;;20.10;99.90;;;;;;6159958;23;20498;-77
2023/05/23 09:53:00;;;;;;;15.57;14.27;;;19.90;99.90;;;;;;6170250;23;20481;-77
2023/05/23 09:55:27;;;;;;;17.70;16.20;;;20.00;99.90;;;;;;6171106;23;20966;-77
2023/05/23 09:57:55;;;;;;;15.80;14.40;;;20.00;99.90;;;;;;6153310;23;20445;-77
2023/05/23 10:00:25;;;;;;;15.40;14.30;;;19.90;99.90;;;;;;6137853;23;20909;-77
2023/05/23 10:03:05;;;;;;;15.40;14.20;;;20.00;99.90;;;;;;6155952;23;20455;-76
2023/05/23 10:05:36;;;;;;;15.90;14.70;;;20.00;99.90;;;;;;6152260;23;20548;-77
2023/05/23 10:08:10;;;;;;;13.80;12.60;;;20.20;99.90;;;;;;6167113;23;20457;-77
2023/05/23 10:11:13;;;;;;;16.13;14.63;;;20.50;99.90;;;;;;6169382;23;20531;-77
2023/05/23 10:13:42;;;;;;;15.70;14.50;;;20.80;99.90;;;;;;6170172;23;20462;-77
2023/05/23 10:16:17;;;;;;;14.77;13.67;;;20.90;99.90;;;;;;6168205;23;20459;-77
2023/05/23 10:18:48;;;;;;;13.80;12.80;;;21.10;99.90;;;;;;6157138;23;20519;-77
2023/05/23 10:21:20;;;;;;;13.00;12.10;;;21.30;99.90;;;;;;6158448;23;20555;-77
2023/05/23 10:23:48;;;;;;;14.70;13.60;;;21.40;99.90;;;;;;6158463;23;20491;-77
2023/05/23 10:26:16;;;;;;;13.07;12.07;;;21.50;99.90;;;;;;6180435;23;21157;-77
2023/05/23 10:28:46;;;;;;;12.80;11.80;;;21.60;99.90;;;;;;6160192;23;20471;-77
2023/05/23 10:31:14;;;;;;;11.30;10.37;;;21.80;99.90;;;;;;6151562;23;20465;-77
2023/05/23 10:33:48;;;;;;;12.23;11.33;;;22.20;99.90;;;;;;6160765;23;20518;-78
2023/05/23 10:36:22;;;;;;;10.97;10.20;;;22.60;99.90;;;;;;6148912;23;20947;-77
2023/05/23 10:38:56;;;;;;;11.73;10.83;;;22.90;99.90;;;;;;6156599;23;20455;-76
2023/05/23 10:41:27;;;;;;;11.50;10.60;;;23.20;99.90;;;;;;6159174;23;20447;-76
2023/05/23 10:44:02;;;;;;;11.57;10.67;;;23.10;99.90;;;;;;6163799;23;20447;-76
2023/05/23 10:46:53;;;;;;;12.00;11.00;;;23.10;99.90;;;;;;6172412;23;20434;-76
2023/05/23 10:49:20;;;;;;;12.30;11.30;;;23.00;99.90;;;;;;6157163;23;20460;-76
2023/05/23 10:51:50;;;;;;;11.30;10.40;;;22.90;99.90;;;;;;6155784;23;20472;-76
2023/05/23 10:54:19;;;;;;;9.90;9.20;;;22.80;99.90;;;;;;6142534;23;20432;-76
2023/05/23 10:56:47;;;;;;;9.80;9.07;;;22.70;99.90;;;;;;6159650;23;20432;-76
2023/05/23 10:59:21;;;;;;;10.23;9.53;;;22.60;99.90;;;;;;6152883;23;20439;-76
2023/05/23 11:01:52;;;;;;;9.33;8.73;;;22.60;99.90;;;;;;6167187;23;20854;-76
2023/05/23 11:04:26;;;;;;;10.07;9.37;;;22.70;99.90;;;;;;6158385;23;20440;-79
2023/05/23 11:06:54;;;;;;;10.50;9.70;;;22.70;99.90;;;;;;6152304;23;20777;-76
2023/05/23 11:09:21;;;;;;;11.00;10.20;;;22.60;99.90;;;;;;6155959;23;20429;-76
2023/05/23 11:11:57;;;;;;;10.47;9.30;;;22.50;99.90;;;;;;6161338;23;21198;-75
2023/05/23 11:14:49;;;;;;;10.50;9.40;;;22.50;99.90;;;;;;6152353;23;20444;-76
2023/05/23 11:17:29;;;;;;;8.50;7.70;;;22.50;99.90;;;;;;6156572;23;20435;-76
2023/05/23 11:19:59;;;;;;;8.23;7.70;;;22.70;99.90;;;;;;6154257;23;20565;-76
2023/05/23 11:22:30;;;;;;;8.83;8.17;;;23.10;99.90;;;;;;6147832;23;21509;-76
2023/05/23 11:24:58;;;;;;;9.00;8.30;;;23.50;99.90;;;;;;6163383;23;20510;-76
2023/05/23 11:27:30;;;;;;;9.50;8.80;;;23.60;99.90;;;;;;6173252;23;20438;-76
2023/05/23 11:29:59;;;;;;;9.47;8.87;;;23.60;99.90;;;;;;6149184;23;20447;-76
2023/05/23 11:32:30;;;;;;;11.03;10.03;;;23.50;99.90;;;;;;6168024;23;20494;-76
2023/05/23 11:35:00;;;;;;;11.03;10.23;;;23.20;99.90;;;;;;6174499;23;20475;-76
2023/05/23 11:37:28;;;;;;;9.73;9.03;;;22.90;99.90;;;;;;6171917;23;20434;-76
2023/05/23 11:39:55;;;;;;;11.57;10.77;;;22.60;99.90;;;;;;6152048;23;20437;-76
2023/05/23 11:42:22;;;;;;;10.73;9.83;;;22.40;99.90;;;;;;6132017;23;21060;-76
2023/05/23 11:44:50;;;;;;;9.60;8.90;;;22.30;99.90;;;;;;6156804;23;20783;-79
2023/05/23 11:47:17;;;;;;;10.67;9.87;;;22.30;99.90;;;;;;6142814;23;20447;-76
2023/05/23 11:49:47;;;;;;;11.13;10.43;;;22.30;99.90;;;;;;6166763;23;20440;-76
2023/05/23 11:52:14;;;;;;;9.40;8.70;;;21.90;99.90;;;;;;6163555;23;20518;-77
2023/05/23 11:54:42;;;;;;;9.50;8.80;;;21.90;99.90;;;;;;6173581;23;20515;-76
2023/05/23 11:57:09;;;;;;;9.13;8.33;;;22.10;99.90;;;;;;6165834;23;20480;-77
2023/05/23 11:59:37;;;;;;;10.13;9.33;;;22.20;99.90;;;;;;6179842;23;20424;-76
2023/05/23 12:02:06;;;;;;;10.27;9.47;;;22.50;99.90;;;;;;6154683;23;20997;-76
2023/05/23 12:04:35;;;;;;;9.77;9.07;;;22.80;99.90;;;;;;6158620;23;20443;-76
2023/05/23 12:07:07;;;;;;;9.20;8.50;;;23.10;99.90;;;;;;6157092;23;20542;-77
2023/05/23 12:09:42;;;;;;;9.87;9.20;;;23.40;99.90;;;;;;6158874;23;20441;-76
2023/05/23 12:12:09;;;;;;;10.00;9.20;;;23.70;99.90;;;;;;6174724;23;20553;-76
2023/05/23 12:14:43;;;;;;;9.03;8.40;;;23.70;99.90;;;;;;6164588;23;20514;-77
2023/05/23 12:17:12;;;;;;;7.20;6.73;;;23.70;99.90;;;;;;6173475;23;20428;-77
2023/05/23 12:19:39;;;;;;;7.10;6.60;;;23.70;99.90;;;;;;6152553;23;20443;-77
2023/05/23 12:22:08;;;;;;;10.37;8.13;;;23.70;99.90;;;;;;6156865;23;20534;-78
2023/05/23 12:24:35;;;;;;;9.50;8.80;;;23.60;99.90;;;;;;6151857;23;20515;-77
2023/05/23 12:27:04;;;;;;;9.73;9.03;;;23.20;99.90;;;;;;6144884;23;20441;-78
2023/05/23 12:29:32;;;;;;;8.67;8.10;;;22.90;99.90;;;;;;6137364;23;23363;-79
2023/05/23 12:32:00;;;;;;;8.67;7.97;;;22.80;99.90;;;;;;6139329;23;22045;-79
2023/05/23 12:34:28;;;;;;;8.73;7.97;;;22.60;99.90;;;;;;6172620;23;20509;-79